createdAt,value
2022-09-13T00:00:26.803Z,100980.28
2022-09-13T00:02:57.784Z,100983.06
2022-09-13T00:05:29.416Z,100972.03
2022-09-13T00:08:00.547Z,100977.25
2022-09-13T00:10:32.127Z,100983.88
2022-09-13T00:13:03.009Z,100985.00
2022-09-13T00:15:34.118Z,100992.16
2022-09-13T00:18:05.064Z,100996.81
2022-09-13T00:20:35.858Z,101004.28
2022-09-13T00:23:06.421Z,101017.75
2022-09-13T00:25:37.600Z,101018.56
2022-09-13T00:28:08.833Z,101017.53
2022-09-13T00:30:39.715Z,101022.25
2022-09-13T00:33:10.501Z,101036.81
2022-09-13T00:35:41.299Z,101037.03
2022-09-13T00:38:12.022Z,101046.94
2022-09-13T00:40:42.909Z,101040.91
2022-09-13T00:43:23.252Z,101051.63
2022-09-13T00:45:54.205Z,101057.34
2022-09-13T00:48:28.273Z,101063.69
2022-09-13T00:50:59.677Z,101066.72
2022-09-13T00:53:35.924Z,101076.94
2022-09-13T00:56:31.785Z,101085.19
2022-09-13T00:59:09.507Z,101084.59
2022-09-13T01:01:47.862Z,101088.97
2022-09-13T01:04:20.822Z,101086.53
2022-09-13T01:06:54.448Z,101095.91
2022-09-13T01:09:26.720Z,101106.94
2022-09-13T01:12:13.295Z,101109.69
2022-09-13T01:14:46.665Z,101117.94
2022-09-13T01:17:17.561Z,101113.28
2022-09-13T01:19:48.392Z,101121.00
2022-09-13T01:22:39.827Z,101129.28
2022-09-13T01:25:29.804Z,101132.84
2022-09-13T01:28:03.430Z,101135.31
2022-09-13T01:30:51.384Z,101132.25
2022-09-13T01:33:25.561Z,101133.03
2022-09-13T01:36:27.371Z,101131.44
2022-09-13T01:39:08.061Z,101133.03
2022-09-13T01:41:53.711Z,101129.47
2022-09-13T01:44:39.262Z,101123.38
2022-09-13T01:47:26.926Z,101128.69
2022-09-13T01:50:29.465Z,101125.00
2022-09-13T01:53:25.345Z,101122.03
2022-09-13T01:56:43.820Z,101112.63
2022-09-13T01:59:31.213Z,101119.38
2022-09-13T02:02:29.960Z,101121.94
2022-09-13T02:05:08.760Z,101124.69
2022-09-13T02:10:45.634Z,101121.03
2022-09-13T02:13:28.507Z,101122.25
2022-09-13T02:16:09.377Z,101125.28
2022-09-13T02:18:46.963Z,101126.34
2022-09-13T02:21:32.108Z,101123.38
2022-09-13T02:24:16.696Z,101125.81
2022-09-13T02:26:49.992Z,101128.78
2022-09-13T02:29:24.174Z,101128.91
2022-09-13T02:32:03.382Z,101120.66
2022-09-13T02:35:03.398Z,101120.06
2022-09-13T02:37:39.072Z,101121.69
2022-09-13T02:40:24.642Z,101126.50
2022-09-13T02:43:30.659Z,101123.00
2022-09-13T02:46:28.360Z,101127.63
2022-09-13T02:49:19.705Z,101126.00
2022-09-13T02:52:22.782Z,101117.00
2022-09-13T02:55:09.048Z,101121.41
2022-09-13T02:58:05.709Z,101117.84
2022-09-13T03:00:37.203Z,101122.63
2022-09-13T03:03:21.813Z,101125.28
2022-09-13T03:05:52.972Z,101113.84
2022-09-13T03:08:25.033Z,101132.72
2022-09-13T03:11:17.975Z,101129.97
2022-09-13T03:13:57.788Z,101137.63
2022-09-13T03:16:54.628Z,101128.25
2022-09-13T03:19:52.725Z,101131.72
2022-09-13T03:22:32.162Z,101124.97
2022-09-13T03:25:39.844Z,101131.09
2022-09-13T03:28:44.301Z,101131.28
2022-09-13T03:31:53.448Z,101130.78
2022-09-13T03:34:48.353Z,101134.28
2022-09-13T03:37:30.683Z,101134.75
2022-09-13T03:40:04.729Z,101124.13
2022-09-13T03:42:52.347Z,101125.91
2022-09-13T03:45:33.865Z,101119.28
2022-09-13T03:48:07.397Z,101119.47
2022-09-13T03:50:39.316Z,101109.84
2022-09-13T03:53:14.817Z,101111.69
2022-09-13T03:55:48.112Z,101101.38
2022-09-13T03:58:22.633Z,101102.19
2022-09-13T04:00:57.674Z,101096.91
2022-09-13T04:03:28.804Z,101094.34
2022-09-13T04:05:59.499Z,101097.72
2022-09-13T04:08:30.118Z,101088.81
2022-09-13T04:11:01.131Z,101091.78
2022-09-13T04:13:32.100Z,101075.31
2022-09-13T04:16:07.911Z,101078.06
2022-09-13T04:18:39.327Z,101067.34
2022-09-13T04:21:10.123Z,101061.84
2022-09-13T04:23:41.062Z,101055.19
2022-09-13T04:26:12.521Z,101051.69
2022-09-13T04:28:44.673Z,101040.13
2022-09-13T04:31:22.284Z,101046.16
2022-09-13T04:33:54.716Z,101045.03
2022-09-13T04:36:25.868Z,101036.88
2022-09-13T04:38:56.804Z,101032.19
2022-09-13T04:41:27.594Z,101036.25
2022-09-13T04:43:58.889Z,101036.25
2022-09-13T04:46:30.056Z,101029.78
2022-09-13T04:49:01.668Z,101023.31
2022-09-13T04:51:32.596Z,101022.84
2022-09-13T04:54:03.563Z,101017.19
2022-09-13T04:56:34.386Z,101015.44
2022-09-13T04:59:05.078Z,101006.53
2022-09-13T05:01:36.374Z,101002.88
2022-09-13T05:04:08.788Z,101002.25
2022-09-13T05:06:40.866Z,100984.81
2022-09-13T05:09:16.853Z,100983.13
2022-09-13T05:11:47.585Z,100976.47
2022-09-13T05:14:18.445Z,100970.34
2022-09-13T05:16:49.483Z,100959.47
2022-09-13T05:19:20.461Z,100957.66
2022-09-13T05:21:51.156Z,100951.47
2022-09-13T05:24:22.009Z,100949.38
2022-09-13T05:26:52.933Z,100944.63
2022-09-13T05:29:23.731Z,100933.28
2022-09-13T05:31:54.539Z,100921.78
2022-09-13T05:34:25.477Z,100917.22
2022-09-13T05:36:56.503Z,100914.84
2022-09-13T05:39:33.902Z,100914.63
2022-09-13T05:42:10.502Z,100913.72
2022-09-13T05:44:41.312Z,100909.78
2022-09-13T05:47:12.317Z,100912.94
2022-09-13T05:50:08.376Z,100915.50
2022-09-13T05:52:33.830Z,100903.63
2022-09-13T05:55:04.793Z,100901.56
2022-09-13T05:57:35.513Z,100888.06
2022-09-13T06:00:07.646Z,100885.22
2022-09-13T06:02:42.878Z,100884.19
2022-09-13T06:05:13.523Z,100883.69
2022-09-13T06:07:44.964Z,100877.03
2022-09-13T06:10:16.084Z,100872.66
2022-09-13T06:12:47.034Z,100867.63
2022-09-13T06:15:18.335Z,100857.91
2022-09-13T06:17:49.647Z,100854.38
2022-09-13T06:20:20.847Z,100855.69
2022-09-13T06:22:52.475Z,100856.94
2022-09-13T06:25:23.376Z,100853.44
2022-09-13T06:27:54.130Z,100851.16
2022-09-13T06:30:24.905Z,100854.75
2022-09-13T06:32:55.967Z,100844.00
2022-09-13T06:35:26.908Z,100827.75
2022-09-13T06:38:01.476Z,100822.06
2022-09-13T06:40:32.429Z,100807.94
2022-09-13T06:43:03.253Z,100806.97
2022-09-13T06:45:33.914Z,100803.56
2022-09-13T06:48:04.841Z,100803.38
2022-09-13T06:50:35.655Z,100802.56
2022-09-13T06:53:06.952Z,100806.97
2022-09-13T06:55:38.026Z,100797.53
2022-09-13T06:58:09.105Z,100790.06
2022-09-13T07:00:39.890Z,100787.31
2022-09-13T07:03:11.500Z,100778.06
2022-09-13T07:05:42.204Z,100777.88
2022-09-13T07:08:12.995Z,100762.28
2022-09-13T07:10:43.942Z,100765.19
2022-09-13T07:13:14.854Z,100750.44
2022-09-13T07:15:45.640Z,100734.00
2022-09-13T07:18:16.321Z,100728.53
2022-09-13T07:20:47.234Z,100736.47
2022-09-13T07:23:17.782Z,100739.81
2022-09-13T07:25:57.763Z,100745.19
2022-09-13T07:28:31.195Z,100732.34
2022-09-13T07:31:16.589Z,100733.16
2022-09-13T07:33:48.498Z,100726.34
2022-09-13T07:36:19.162Z,100726.66
2022-09-13T07:38:50.900Z,100721.78
2022-09-13T07:41:26.798Z,100723.28
2022-09-13T07:43:58.321Z,100733.66
2022-09-13T07:46:31.553Z,100739.84
2022-09-13T07:49:04.742Z,100740.16
2022-09-13T07:51:38.435Z,100722.78
2022-09-13T07:54:15.487Z,100731.25
2022-09-13T07:56:46.344Z,100731.06
2022-09-13T07:59:19.448Z,100752.50
2022-09-13T08:01:54.764Z,100750.84
2022-09-13T08:04:28.508Z,100734.97
2022-09-13T08:06:59.826Z,100734.13
2022-09-13T08:09:31.083Z,100733.97
2022-09-13T08:12:01.947Z,100733.81
2022-09-13T08:14:34.349Z,100735.09
2022-09-13T08:17:05.074Z,100727.94
2022-09-13T08:19:35.965Z,100714.28
2022-09-13T08:22:06.767Z,100731.16
2022-09-13T08:24:38.095Z,100761.50
2022-09-13T08:27:20.458Z,100789.56
2022-09-13T08:29:51.817Z,100792.66
2022-09-13T08:32:22.381Z,100797.69
2022-09-13T08:34:53.314Z,100798.31
2022-09-13T08:37:23.975Z,100806.56
2022-09-13T08:39:54.743Z,100814.69
2022-09-13T08:42:52.020Z,100805.41
2022-09-13T08:45:22.933Z,100815.31
2022-09-13T08:48:06.913Z,100815.88
2022-09-13T08:50:39.579Z,100804.16
2022-09-13T08:53:23.916Z,100789.34
2022-09-13T08:56:11.159Z,100785.41
2022-09-13T08:59:11.563Z,100791.25
2022-09-13T09:01:54.469Z,100797.78
2022-09-13T09:04:35.110Z,100793.06
2022-09-13T09:07:27.029Z,100780.41
2022-09-13T09:10:23.469Z,100766.63
2022-09-13T09:13:24.267Z,100763.69
2022-09-13T09:16:02.079Z,100766.06
2022-09-13T09:18:38.291Z,100780.06
2022-09-13T09:21:18.364Z,100782.81
2022-09-13T09:23:51.798Z,100778.72
2022-09-13T09:26:26.672Z,100773.72
2022-09-13T09:29:25.239Z,100774.34
2022-09-13T09:32:01.996Z,100776.59
2022-09-13T09:34:45.252Z,100770.44
2022-09-13T09:37:31.515Z,100758.75
2022-09-13T09:40:07.270Z,100759.69
2022-09-13T09:42:50.316Z,100757.56
2022-09-13T09:45:28.401Z,100745.00
2022-09-13T09:48:02.280Z,100752.13
2022-09-13T09:50:39.155Z,100750.25
2022-09-13T09:53:39.223Z,100751.03
2022-09-13T09:56:19.394Z,100749.72
2022-09-13T09:58:50.780Z,100764.47
2022-09-13T10:01:33.325Z,100770.66
2022-09-13T10:04:23.536Z,100770.31
2022-09-13T10:07:13.776Z,100762.72
2022-09-13T10:10:11.629Z,100768.22
2022-09-13T10:12:43.514Z,100765.66
2022-09-13T10:15:23.905Z,100767.13
2022-09-13T10:18:16.826Z,100769.53
2022-09-13T10:21:22.657Z,100773.91
2022-09-13T10:23:54.469Z,100776.06
2022-09-13T10:26:29.289Z,100764.69
2022-09-13T10:29:10.076Z,100762.44
2022-09-13T10:31:44.639Z,100764.06
2022-09-13T10:34:16.733Z,100769.88
2022-09-13T10:37:15.526Z,100768.28
2022-09-13T10:39:55.530Z,100771.22
2022-09-13T10:42:29.151Z,100774.59
2022-09-13T10:45:04.199Z,100776.34
2022-09-13T10:47:53.015Z,100779.59
2022-09-13T10:50:38.664Z,100785.63
2022-09-13T10:53:42.822Z,100790.00
2022-09-13T10:56:24.222Z,100798.91
2022-09-13T10:58:54.994Z,100790.13
2022-09-13T11:01:25.715Z,100797.78
2022-09-13T11:04:22.193Z,100803.28
2022-09-13T11:07:06.517Z,100817.56
2022-09-13T11:09:51.846Z,100816.88
2022-09-13T11:12:31.195Z,100825.66
2022-09-13T11:15:28.757Z,100823.72
2022-09-13T11:18:08.024Z,100823.41
2022-09-13T11:20:55.212Z,100832.81
2022-09-13T11:23:39.729Z,100830.97
2022-09-13T11:26:13.260Z,100847.50
2022-09-13T11:29:09.572Z,100851.28
2022-09-13T11:31:57.440Z,100856.50
2022-09-13T11:34:31.654Z,100862.00
2022-09-13T11:37:28.417Z,100866.34
2022-09-13T11:40:23.911Z,100866.56
2022-09-13T11:43:28.248Z,100869.63
2022-09-13T11:46:07.441Z,100867.69
2022-09-13T11:49:23.163Z,100860.22
2022-09-13T11:52:02.853Z,100876.75
2022-09-13T11:54:50.764Z,100884.53
2022-09-13T11:57:29.935Z,100889.75
2022-09-13T12:00:05.282Z,100903.22
2022-09-13T12:03:00.589Z,100891.16
2022-09-13T12:05:42.429Z,100892.19
2022-09-13T12:08:13.221Z,100904.34
2022-09-13T12:11:00.510Z,100909.56
2022-09-13T12:13:35.592Z,100918.94
2022-09-13T12:16:14.441Z,100921.50
2022-09-13T12:18:52.994Z,100922.50
2022-09-13T12:21:29.031Z,100923.44
2022-09-13T12:24:08.510Z,100928.44
2022-09-13T12:26:48.172Z,100926.81
2022-09-13T12:29:32.604Z,100938.16
2022-09-13T12:32:07.779Z,100942.03
2022-09-13T12:35:03.198Z,100957.13
2022-09-13T12:37:54.997Z,100959.28
2022-09-13T12:40:53.250Z,100977.44
2022-09-13T12:43:53.584Z,100980.19
2022-09-13T12:46:45.611Z,100975.91
2022-09-13T12:49:38.933Z,100986.84
2022-09-13T12:53:00.039Z,100995.72
2022-09-13T12:55:47.015Z,101008.38
2022-09-13T12:58:41.365Z,101012.88
2022-09-13T13:01:20.890Z,101022.78
2022-09-13T13:04:16.394Z,101029.41
2022-09-13T13:06:58.672Z,101030.84
2022-09-13T13:09:49.528Z,101034.91
2022-09-13T13:12:44.118Z,101040.94
2022-09-13T13:15:29.976Z,101041.25
2022-09-13T13:18:21.306Z,101041.47
2022-09-13T13:20:58.210Z,101050.03
2022-09-13T13:23:34.357Z,101053.09
2022-09-13T13:26:35.940Z,101059.94
2022-09-13T13:29:07.844Z,101065.97
2022-09-13T13:31:40.964Z,101065.97
2022-09-13T13:34:18.302Z,101059.03
2022-09-13T13:36:55.271Z,101062.91
2022-09-13T13:39:29.380Z,101066.47
2022-09-13T13:42:21.823Z,101061.59
2022-09-13T13:44:56.556Z,101061.59
2022-09-13T13:47:33.530Z,101068.22
2022-09-13T13:50:21.634Z,101069.03
2022-09-13T13:53:01.385Z,101077.81
2022-09-13T13:55:52.054Z,101076.38
2022-09-13T13:58:22.941Z,101083.50
2022-09-13T14:00:56.678Z,101076.78
2022-09-13T14:03:54.248Z,101074.63
2022-09-13T14:06:40.309Z,101072.81
2022-09-13T14:09:34.183Z,101070.56
2022-09-13T14:12:23.241Z,101076.06
2022-09-13T14:15:10.523Z,101078.41
2022-09-13T14:18:01.594Z,101086.19
2022-09-13T14:20:32.756Z,101105.16
2022-09-13T14:23:23.074Z,101116.00
2022-09-13T14:26:02.468Z,101119.97
2022-09-13T14:28:35.731Z,101128.25
2022-09-13T14:32:24.850Z,101140.09
2022-09-13T14:35:04.722Z,101151.13
2022-09-13T14:37:39.453Z,101153.66
2022-09-13T14:40:25.919Z,101154.78
2022-09-13T14:42:58.757Z,101154.19
2022-09-13T14:45:29.634Z,101151.50
2022-09-13T14:48:25.468Z,101160.81
2022-09-13T14:51:35.255Z,101164.00
2022-09-13T14:54:23.537Z,101156.31
2022-09-13T14:57:02.064Z,101146.84
2022-09-13T14:59:37.209Z,101138.56
2022-09-13T15:02:35.423Z,101128.44
2022-09-13T15:05:11.933Z,101114.56
2022-09-13T15:07:44.655Z,101121.19
2022-09-13T15:10:21.267Z,101120.06
2022-09-13T15:13:10.032Z,101133.34
2022-09-13T15:15:43.112Z,101134.88
2022-09-13T15:18:20.001Z,101141.09
2022-09-13T15:21:02.396Z,101150.09
2022-09-13T15:23:34.234Z,101147.84
2022-09-13T15:26:11.599Z,101164.19
2022-09-13T15:28:48.581Z,101155.59
2022-09-13T15:31:32.601Z,101164.72
2022-09-13T15:34:21.501Z,101164.19
2022-09-13T15:37:11.359Z,101167.03
2022-09-13T15:39:51.089Z,101161.00
2022-09-13T15:42:21.923Z,101158.78
2022-09-13T15:44:52.770Z,101157.44
2022-09-13T15:47:23.650Z,101172.34
2022-09-13T15:49:55.458Z,101174.00
2022-09-13T15:52:26.732Z,101164.09
2022-09-13T15:54:57.298Z,101165.53
2022-09-13T15:57:31.072Z,101165.22
2022-09-13T16:00:06.181Z,101158.88
2022-09-13T16:02:40.272Z,101159.69
2022-09-13T16:05:11.377Z,101160.00
2022-09-13T16:07:43.423Z,101153.38
2022-09-13T16:10:18.368Z,101148.97
2022-09-13T16:12:49.640Z,101141.50
2022-09-13T16:15:20.181Z,101132.13
2022-09-13T16:17:51.164Z,101120.56
2022-09-13T16:20:22.778Z,101110.66
2022-09-13T16:22:53.760Z,101106.78
2022-09-13T16:25:25.126Z,101110.38
2022-09-13T16:27:57.701Z,101100.16
2022-09-13T16:30:30.623Z,101093.53
2022-09-13T16:33:01.540Z,101086.09
2022-09-13T16:35:33.917Z,101089.13
2022-09-13T16:38:04.725Z,101088.63
2022-09-13T16:40:35.520Z,101104.34
2022-09-13T16:43:06.583Z,101098.53
2022-09-13T16:45:37.819Z,101107.41
2022-09-13T16:48:08.298Z,101109.88
2022-09-13T16:50:42.487Z,101104.63
2022-09-13T16:53:13.402Z,101099.66
2022-09-13T16:55:44.575Z,101100.28
2022-09-13T16:58:15.443Z,101095.88
2022-09-13T17:00:47.582Z,101090.38
2022-09-13T17:03:18.324Z,101095.06
2022-09-13T17:06:01.004Z,101092.00
2022-09-13T17:08:32.607Z,101083.22
2022-09-13T17:11:07.372Z,101082.09
2022-09-13T17:13:39.207Z,101076.59
2022-09-13T17:16:21.570Z,101083.75
2022-09-13T17:18:53.034Z,101085.97
2022-09-13T17:21:24.995Z,101090.66
2022-09-13T17:23:55.846Z,101082.72
2022-09-13T17:26:26.631Z,101079.13
2022-09-13T17:28:57.664Z,101076.38
2022-09-13T17:31:28.631Z,101082.19
2022-09-13T17:33:59.516Z,101084.94
2022-09-13T17:36:30.512Z,101083.50
2022-09-13T17:39:01.870Z,101084.94
2022-09-13T17:41:33.004Z,101073.59
2022-09-13T17:44:03.711Z,101072.28
2022-09-13T17:46:34.712Z,101070.03
2022-09-13T17:49:05.710Z,101062.91
2022-09-13T17:51:37.161Z,101062.91
2022-09-13T17:54:10.006Z,101063.22
2022-09-13T17:56:44.857Z,101059.63
2022-09-13T17:59:22.555Z,101053.31
2022-09-13T18:01:55.904Z,101046.97
2022-09-13T18:04:26.840Z,101050.03
2022-09-13T18:06:58.626Z,101054.22
2022-09-13T18:09:29.754Z,101045.66
2022-09-13T18:12:00.522Z,101050.03
2022-09-13T18:14:31.269Z,101046.97
2022-09-13T18:17:02.450Z,101047.56
2022-09-13T18:19:45.827Z,101035.44
2022-09-13T18:22:17.615Z,101028.00
2022-09-13T18:24:48.364Z,101022.78
2022-09-13T18:27:19.279Z,101020.00
2022-09-13T18:29:50.213Z,101016.13
2022-09-13T18:32:21.227Z,101007.34
2022-09-13T18:34:52.017Z,100997.16
2022-09-13T18:37:22.929Z,100996.34
2022-09-13T18:39:53.700Z,100996.34
2022-09-13T18:42:24.420Z,100988.91
2022-09-13T18:44:55.600Z,100983.66
2022-09-13T18:47:26.384Z,100980.63
2022-09-13T18:49:57.210Z,100974.59
2022-09-13T18:52:27.991Z,100973.47
2022-09-13T18:54:58.791Z,100964.69
2022-09-13T18:57:30.508Z,100959.19
2022-09-13T19:00:02.097Z,100958.69
2022-09-13T19:02:34.061Z,100966.66
2022-09-13T19:05:07.032Z,100958.69
2022-09-13T19:07:38.631Z,100959.00
2022-09-13T19:10:11.928Z,100955.63
2022-09-13T19:12:46.286Z,100961.44
2022-09-13T19:15:17.238Z,100954.00
2022-09-13T19:17:48.396Z,100957.56
2022-09-13T19:20:19.460Z,100956.13
2022-09-13T19:22:50.149Z,100961.16
2022-09-13T19:25:21.193Z,100952.03
2022-09-13T19:27:51.953Z,100945.09
2022-09-13T19:30:22.984Z,100947.16
2022-09-13T19:32:53.840Z,100954.00
2022-09-13T19:35:24.768Z,100950.13
2022-09-13T19:37:56.661Z,100956.94
2022-09-13T19:40:27.781Z,100959.69
2022-09-13T19:42:58.513Z,100958.88
2022-09-13T19:45:29.360Z,100972.16
2022-09-13T19:48:37.004Z,100977.69
2022-09-13T19:50:51.778Z,100976.56
2022-09-13T19:53:35.543Z,100970.22
2022-09-13T19:56:16.979Z,100972.78
2022-09-13T19:58:48.391Z,100970.31
2022-09-13T20:01:22.025Z,100968.69
2022-09-13T20:04:05.002Z,100962.03
2022-09-13T20:06:44.203Z,100963.50
2022-09-13T20:09:16.790Z,100959.59
2022-09-13T20:11:48.511Z,100961.84
2022-09-13T20:14:22.197Z,100966.25
2022-09-13T20:16:53.079Z,100974.50
2022-09-13T20:19:40.632Z,100965.13
2022-09-13T20:22:12.461Z,100958.81
2022-09-13T20:24:43.191Z,100954.72
2022-09-13T20:27:14.191Z,100961.56
2022-09-13T20:29:44.926Z,100957.97
2022-09-13T20:32:15.607Z,100962.38
2022-09-13T20:34:46.101Z,100965.72
2022-09-13T20:37:16.936Z,100965.72
2022-09-13T20:40:06.444Z,100962.97
2022-09-13T20:42:37.367Z,100965.72
2022-09-13T20:45:08.671Z,100977.88
2022-09-13T20:47:39.349Z,100988.59
2022-09-13T20:50:10.583Z,100981.16
2022-09-13T20:52:41.523Z,100980.63
2022-09-13T20:55:12.556Z,100986.16
2022-09-13T20:57:43.295Z,100991.66
2022-09-13T21:00:15.253Z,100985.63
2022-09-13T21:05:31.643Z,100990.03
2022-09-13T21:08:21.138Z,101001.88
2022-09-13T21:11:06.162Z,100999.41
2022-09-13T21:13:39.232Z,101000.53
2022-09-13T21:16:15.651Z,101000.53
2022-09-13T21:18:47.209Z,101002.47
2022-09-13T21:21:21.018Z,101000.53
2022-09-13T21:23:51.782Z,100989.81
2022-09-13T21:26:25.452Z,100990.66
2022-09-13T21:28:57.624Z,100985.16
2022-09-13T21:31:46.766Z,100992.59
2022-09-13T21:34:22.137Z,100987.34
2022-09-13T21:36:53.724Z,100991.22
2022-09-13T21:39:24.475Z,100989.00
2022-09-13T21:41:55.133Z,100992.59
2022-09-13T21:44:25.862Z,101001.13
2022-09-13T21:49:41.645Z,101002.25
2022-09-13T21:52:12.424Z,101015.53
2022-09-13T21:54:43.177Z,101021.03
2022-09-13T21:57:13.816Z,101015.53
2022-09-13T21:59:44.497Z,101021.03
2022-09-13T22:02:33.828Z,101022.34
2022-09-13T22:05:04.712Z,101022.66
2022-09-13T22:07:36.328Z,101024.31
2022-09-13T22:10:07.645Z,101018.28
2022-09-13T22:12:38.103Z,101017.16
2022-09-13T22:15:09.604Z,101008.56
2022-09-13T22:17:39.862Z,101000.09
2022-09-13T22:20:10.840Z,101009.19
2022-09-13T22:22:41.470Z,101002.88
2022-09-13T22:25:12.408Z,100995.13
2022-09-13T22:27:43.767Z,101004.50
2022-09-13T22:30:14.401Z,100993.41
2022-09-13T22:32:45.219Z,100998.28
2022-09-13T22:35:15.941Z,101003.38
2022-09-13T22:37:46.783Z,100997.88
2022-09-13T22:40:17.683Z,101000.63
2022-09-13T22:42:48.358Z,101003.91
2022-09-13T22:45:19.312Z,101005.31
2022-09-13T22:47:50.059Z,101005.81
2022-09-13T22:54:32.733Z,101010.09
2022-09-13T22:57:03.545Z,101010.72
2022-09-13T22:59:34.340Z,101013.25
2022-09-13T23:02:05.206Z,101021.00
2022-09-13T23:04:36.073Z,101005.31
2022-09-13T23:07:06.798Z,101010.31
2022-09-13T23:09:37.351Z,101013.34
2022-09-13T23:12:08.351Z,101013.59
2022-09-13T23:14:39.184Z,101024.28
2022-09-13T23:17:09.948Z,101024.47
2022-09-13T23:19:40.995Z,101013.47
2022-09-13T23:22:11.696Z,101012.84
2022-09-13T23:24:42.328Z,101015.31
2022-09-13T23:27:13.113Z,101017.25
2022-09-13T23:29:43.912Z,101025.50
2022-09-13T23:32:14.790Z,101019.72
2022-09-13T23:34:45.785Z,101017.75
2022-09-13T23:37:16.617Z,101020.19
2022-09-13T23:39:47.472Z,101020.50
2022-09-13T23:42:18.328Z,101027.47
2022-09-13T23:44:49.002Z,101031.53
2022-09-13T23:47:20.049Z,101037.56
2022-09-13T23:49:50.855Z,101035.94
2022-09-13T23:52:21.831Z,101045.00
2022-09-13T23:54:53.608Z,101047.75
2022-09-13T23:57:27.546Z,101051.03
2022-09-13T23:59:58.319Z,101052.13
